Terminal Aerodrome Forecast
Issued by NWS Pittsburgh, PA

Current Version | Previous Version | Graphics & Text | Print | Product List | Glossary On
Versions: 1 2 3 4 5 6 7 8 9 10 11 12 13 14 15 16 17 18 19 20 21 22 23 24 25 26 27 28 29 30
000
FTUS41 KPBZ 260520
TAFPIT
TAF
KPIT 260520Z 2606/2712 08005KT P6SM BKN100
     FM261600 14012KT P6SM VCSH OVC050
     FM262300 15010KT 3SM -SHRA BR OVC015
     FM270900 18005KT P6SM -SHRA OVC015=

USA.gov is the U.S. government's official web portal to all federal, state and local government web resources and services.